createdAt,value
2022-11-10T00:00:12.667Z,967.88
2022-11-10T00:01:12.678Z,967.93
2022-11-10T00:02:12.648Z,968.01
2022-11-10T00:03:12.653Z,967.95
2022-11-10T00:04:12.702Z,968.01
2022-11-10T00:05:12.606Z,968.00
2022-11-10T00:06:12.610Z,967.98
2022-11-10T00:07:12.662Z,968.01
2022-11-10T00:08:12.594Z,968.09
2022-11-10T00:09:12.564Z,968.03
2022-11-10T00:10:12.588Z,968.07
2022-11-10T00:11:12.536Z,968.04
2022-11-10T00:12:12.544Z,968.10
2022-11-10T00:13:12.529Z,968.09
2022-11-10T00:14:12.561Z,968.07
2022-11-10T00:15:12.527Z,968.05
2022-11-10T00:16:12.538Z,968.10
2022-11-10T00:17:12.495Z,968.09
2022-11-10T00:18:12.461Z,968.08
2022-11-10T00:19:12.465Z,968.12
2022-11-10T00:20:12.471Z,968.15
2022-11-10T00:21:12.420Z,968.12
2022-11-10T00:22:12.489Z,968.18
2022-11-10T00:23:20.954Z,968.18
2022-11-10T00:24:12.400Z,968.12
2022-11-10T00:25:12.395Z,968.17
2022-11-10T00:26:12.405Z,968.13
2022-11-10T00:27:12.353Z,968.15
2022-11-10T00:28:12.366Z,968.22
2022-11-10T00:29:12.369Z,968.26
2022-11-10T00:30:12.338Z,968.25
2022-11-10T00:31:12.337Z,968.29
2022-11-10T00:32:12.350Z,968.29
2022-11-10T00:33:12.302Z,968.27
2022-11-10T00:34:12.352Z,968.28
2022-11-10T00:35:12.292Z,968.31
2022-11-10T00:36:12.276Z,968.30
2022-11-10T00:37:12.280Z,968.29
2022-11-10T00:38:12.229Z,968.32
2022-11-10T00:39:12.222Z,968.32
2022-11-10T00:40:12.373Z,968.35
2022-11-10T00:41:12.206Z,968.29
2022-11-10T00:42:12.207Z,968.34
2022-11-10T00:43:12.226Z,968.32
2022-11-10T00:44:12.163Z,968.35
2022-11-10T00:45:12.228Z,968.37
2022-11-10T00:46:12.139Z,968.32
2022-11-10T00:47:12.153Z,968.41
2022-11-10T00:48:12.148Z,968.42
2022-11-10T00:49:12.148Z,968.42
2022-11-10T00:50:12.164Z,968.44
2022-11-10T00:51:12.089Z,968.47
2022-11-10T00:52:12.080Z,968.51
2022-11-10T00:53:12.096Z,968.53
2022-11-10T00:54:12.084Z,968.50
2022-11-10T00:55:12.040Z,968.52
2022-11-10T00:56:12.048Z,968.55
2022-11-10T00:57:12.047Z,968.57
2022-11-10T00:58:12.020Z,968.57
2022-11-10T00:59:12.025Z,968.60
2022-11-10T01:00:12.032Z,968.59
2022-11-10T01:01:12.065Z,968.60
2022-11-10T01:02:11.964Z,968.58
2022-11-10T01:03:12.018Z,968.60
2022-11-10T01:04:11.961Z,968.57
2022-11-10T01:05:11.980Z,968.61
2022-11-10T01:06:11.965Z,968.61
2022-11-10T01:07:12.021Z,968.63
2022-11-10T01:08:11.980Z,968.66
2022-11-10T01:09:11.891Z,968.60
2022-11-10T01:10:11.890Z,968.63
2022-11-10T01:11:11.897Z,968.63
2022-11-10T01:12:11.885Z,968.62
2022-11-10T01:13:11.841Z,968.65
2022-11-10T01:14:11.862Z,968.65
2022-11-10T01:15:11.841Z,968.66
2022-11-10T01:16:11.823Z,968.67
2022-11-10T01:17:11.833Z,968.71
2022-11-10T01:18:11.791Z,968.71
2022-11-10T01:19:11.815Z,968.68
2022-11-10T01:20:11.763Z,968.68
2022-11-10T01:21:11.790Z,968.68
2022-11-10T01:22:11.765Z,968.69
2022-11-10T01:23:11.740Z,968.74
2022-11-10T01:24:11.715Z,968.72
2022-11-10T01:25:11.722Z,968.71
2022-11-10T01:26:11.734Z,968.68
2022-11-10T01:27:11.707Z,968.67
2022-11-10T01:28:11.704Z,968.70
2022-11-10T01:29:11.691Z,968.73
2022-11-10T01:30:11.658Z,968.68
2022-11-10T01:31:11.669Z,968.70
2022-11-10T01:32:11.668Z,968.69
2022-11-10T01:33:11.630Z,968.71
2022-11-10T01:34:11.639Z,968.71
2022-11-10T01:35:11.594Z,968.71
2022-11-10T01:36:11.631Z,968.75
2022-11-10T01:37:11.592Z,968.74
2022-11-10T01:38:11.592Z,968.73
2022-11-10T01:39:11.572Z,968.75
2022-11-10T01:40:11.565Z,968.78
2022-11-10T01:41:11.526Z,968.76
2022-11-10T01:42:11.548Z,968.81
2022-11-10T01:43:11.509Z,968.79
2022-11-10T01:44:11.518Z,968.80
2022-11-10T01:45:11.513Z,968.84
2022-11-10T01:46:11.470Z,968.88
2022-11-10T01:47:11.459Z,968.86
2022-11-10T01:48:11.486Z,968.89
2022-11-10T01:49:11.481Z,968.95
2022-11-10T01:50:11.453Z,968.94
2022-11-10T01:51:11.457Z,968.95
2022-11-10T01:52:11.403Z,968.98
2022-11-10T01:53:11.422Z,969.01
2022-11-10T01:54:11.421Z,969.07
2022-11-10T01:55:11.404Z,969.02
2022-11-10T01:56:11.419Z,969.08
2022-11-10T01:57:11.361Z,969.10
2022-11-10T01:58:11.337Z,969.15
2022-11-10T01:59:11.351Z,969.13
2022-11-10T02:00:11.358Z,969.12
2022-11-10T02:01:11.361Z,969.08
2022-11-10T02:02:11.337Z,969.10
2022-11-10T02:03:11.335Z,969.08
2022-11-10T02:04:11.268Z,969.10
2022-11-10T02:05:11.283Z,969.09
2022-11-10T02:06:11.295Z,969.14
2022-11-10T02:07:11.316Z,969.11
2022-11-10T02:08:11.280Z,969.11
2022-11-10T02:09:11.272Z,969.13
2022-11-10T02:10:11.212Z,969.10
2022-11-10T02:11:11.226Z,969.09
2022-11-10T02:12:11.235Z,969.11
2022-11-10T02:13:11.202Z,969.08
2022-11-10T02:14:11.215Z,969.10
2022-11-10T02:15:11.146Z,969.11
2022-11-10T02:16:11.148Z,969.11
2022-11-10T02:17:11.145Z,969.11
2022-11-10T02:18:11.136Z,969.11
2022-11-10T02:19:11.136Z,969.12
2022-11-10T02:20:11.091Z,969.09
2022-11-10T02:21:11.146Z,969.10
2022-11-10T02:22:11.089Z,969.10
2022-11-10T02:23:11.072Z,969.07
2022-11-10T02:24:11.077Z,969.14
2022-11-10T02:25:11.074Z,969.16
2022-11-10T02:26:11.085Z,969.17
2022-11-10T02:27:11.014Z,969.12
2022-11-10T02:28:11.013Z,969.12
2022-11-10T02:29:11.040Z,969.12
2022-11-10T02:30:11.008Z,969.13
2022-11-10T02:31:11.022Z,969.16
2022-11-10T02:32:10.954Z,969.13
2022-11-10T02:33:10.958Z,969.20
2022-11-10T02:34:10.968Z,969.18
2022-11-10T02:35:10.955Z,969.13
2022-11-10T02:36:10.956Z,969.16
2022-11-10T02:37:10.899Z,969.19
2022-11-10T02:38:10.885Z,969.25
2022-11-10T02:39:10.880Z,969.27
2022-11-10T02:40:10.875Z,969.28
2022-11-10T02:41:10.902Z,969.28
2022-11-10T02:42:10.895Z,969.28
2022-11-10T02:43:10.831Z,969.28
2022-11-10T02:44:10.827Z,969.27
2022-11-10T02:45:10.817Z,969.30
2022-11-10T02:46:10.817Z,969.27
2022-11-10T02:47:10.828Z,969.28
2022-11-10T02:48:10.772Z,969.28
2022-11-10T02:49:10.764Z,969.30
2022-11-10T02:50:10.765Z,969.32
2022-11-10T02:51:10.753Z,969.37
2022-11-10T02:52:10.766Z,969.44
2022-11-10T02:53:10.766Z,969.41
2022-11-10T02:54:10.710Z,969.45
2022-11-10T02:55:11.493Z,969.48
2022-11-10T02:56:11.022Z,969.47
2022-11-10T02:57:10.707Z,969.46
2022-11-10T02:58:10.699Z,969.47
2022-11-10T02:59:10.695Z,969.51
2022-11-10T03:00:10.665Z,969.59
2022-11-10T03:01:10.675Z,969.55
2022-11-10T03:02:10.647Z,969.59
2022-11-10T03:03:10.629Z,969.61
2022-11-10T03:04:10.631Z,969.58
2022-11-10T03:05:10.618Z,969.66
2022-11-10T03:06:10.589Z,969.67
2022-11-10T03:07:10.595Z,969.64
2022-11-10T03:08:10.583Z,969.66
2022-11-10T03:09:10.565Z,969.72
2022-11-10T03:10:10.573Z,969.70
2022-11-10T03:11:10.531Z,969.72
2022-11-10T03:12:10.517Z,969.75
2022-11-10T03:13:10.519Z,969.75
2022-11-10T03:14:10.539Z,969.82
2022-11-10T03:15:10.508Z,969.82
2022-11-10T03:16:10.512Z,969.96
2022-11-10T03:17:10.450Z,969.85
2022-11-10T03:18:10.539Z,969.94
2022-11-10T03:19:10.532Z,969.92
2022-11-10T03:20:10.464Z,969.97
2022-11-10T03:21:10.447Z,969.93
2022-11-10T03:22:10.394Z,969.94
2022-11-10T03:23:10.382Z,969.98
2022-11-10T03:24:10.395Z,970.01
2022-11-10T03:25:10.391Z,970.02
2022-11-10T03:26:10.375Z,969.92
2022-11-10T03:27:10.384Z,969.90
2022-11-10T03:28:10.330Z,969.98
2022-11-10T03:29:10.343Z,969.97
2022-11-10T03:30:10.339Z,969.97
2022-11-10T03:31:10.339Z,970.00
2022-11-10T03:32:10.307Z,970.03
2022-11-10T03:33:10.276Z,970.04
2022-11-10T03:34:10.282Z,970.13
2022-11-10T03:35:10.264Z,970.11
2022-11-10T03:36:10.277Z,970.23
2022-11-10T03:37:10.253Z,970.16
2022-11-10T03:38:10.246Z,970.21
2022-11-10T03:39:10.252Z,970.19
2022-11-10T03:40:10.216Z,970.24
2022-11-10T03:41:19.193Z,970.25
2022-11-10T03:42:11.219Z,970.27
2022-11-10T03:43:10.211Z,970.29
2022-11-10T03:44:10.198Z,970.30
2022-11-10T03:45:10.162Z,970.31
2022-11-10T03:46:10.130Z,970.28
2022-11-10T03:47:10.119Z,970.33
2022-11-10T03:48:10.153Z,970.31
2022-11-10T03:49:10.128Z,970.28
2022-11-10T03:50:10.131Z,970.26
2022-11-10T03:51:10.099Z,970.23
2022-11-10T03:52:10.072Z,970.33
2022-11-10T03:53:10.081Z,970.30
2022-11-10T03:54:10.068Z,970.31
2022-11-10T03:55:10.055Z,970.30
2022-11-10T03:56:10.067Z,970.27
2022-11-10T03:57:10.010Z,970.28
2022-11-10T03:58:10.017Z,970.33
2022-11-10T03:59:10.031Z,970.31
2022-11-10T04:00:10.012Z,970.36
2022-11-10T04:01:10.032Z,970.37
2022-11-10T04:02:10.067Z,970.41
2022-11-10T04:03:09.958Z,970.46
2022-11-10T04:04:09.941Z,970.48
2022-11-10T04:05:09.964Z,970.55
2022-11-10T04:06:09.936Z,970.47
2022-11-10T04:07:09.994Z,970.48
2022-11-10T04:08:09.894Z,970.48
2022-11-10T04:09:09.903Z,970.58
2022-11-10T04:10:09.898Z,970.57
2022-11-10T04:11:09.903Z,970.50
2022-11-10T04:12:09.880Z,970.62
2022-11-10T04:13:09.869Z,970.61
2022-11-10T04:14:09.830Z,970.62
2022-11-10T04:15:09.814Z,970.66
2022-11-10T04:16:10.040Z,970.63
2022-11-10T04:17:09.859Z,970.62
2022-11-10T04:18:09.817Z,970.60
2022-11-10T04:19:09.764Z,970.59
2022-11-10T04:20:09.760Z,970.59
2022-11-10T04:21:09.763Z,970.60
2022-11-10T04:22:09.740Z,970.61
2022-11-10T04:23:09.743Z,970.52
2022-11-10T04:24:09.711Z,970.53
2022-11-10T04:25:09.697Z,970.53
2022-11-10T04:26:09.708Z,970.62
2022-11-10T04:27:09.694Z,970.62
2022-11-10T04:28:09.684Z,970.65
2022-11-10T04:29:09.682Z,970.73
2022-11-10T04:30:09.680Z,970.74
2022-11-10T04:31:09.631Z,970.76
2022-11-10T04:32:09.695Z,970.78
2022-11-10T04:33:09.627Z,970.78
2022-11-10T04:34:09.619Z,970.75
2022-11-10T04:35:09.624Z,970.78
2022-11-10T04:36:09.622Z,970.72
2022-11-10T04:37:09.589Z,970.75
2022-11-10T04:38:09.566Z,970.78
2022-11-10T04:39:09.553Z,970.80
2022-11-10T04:40:09.561Z,970.80
2022-11-10T04:41:09.560Z,970.86
2022-11-10T04:42:09.535Z,970.94
2022-11-10T04:43:09.498Z,970.93
2022-11-10T04:44:09.494Z,970.96
2022-11-10T04:45:09.494Z,970.94
2022-11-10T04:46:09.503Z,971.01
2022-11-10T04:47:11.959Z,970.99
2022-11-10T04:48:09.441Z,971.01
2022-11-10T04:49:09.462Z,971.03
2022-11-10T04:50:09.445Z,971.09
2022-11-10T04:51:09.473Z,971.13
2022-11-10T04:52:09.444Z,971.10
2022-11-10T04:53:09.384Z,971.17
2022-11-10T04:54:09.373Z,971.15
2022-11-10T04:55:09.362Z,971.15
2022-11-10T04:56:09.369Z,971.16
2022-11-10T04:57:09.376Z,971.15
2022-11-10T04:58:09.365Z,971.21
2022-11-10T04:59:09.377Z,971.18
2022-11-10T05:00:09.312Z,971.22
2022-11-10T05:01:09.329Z,971.25
2022-11-10T05:02:09.304Z,971.15
2022-11-10T05:03:09.307Z,971.21
2022-11-10T05:04:09.276Z,971.16
2022-11-10T05:05:09.273Z,971.21
2022-11-10T05:06:09.257Z,971.18
2022-11-10T05:07:09.260Z,971.24
2022-11-10T05:08:09.236Z,971.27
2022-11-10T05:09:09.236Z,971.26
2022-11-10T05:10:09.216Z,971.23
2022-11-10T05:11:09.182Z,971.22
2022-11-10T05:12:09.568Z,971.21
2022-11-10T05:13:09.182Z,971.22
2022-11-10T05:14:09.179Z,971.24
2022-11-10T05:15:09.137Z,971.29
2022-11-10T05:16:09.126Z,971.38
2022-11-10T05:17:09.122Z,971.37
2022-11-10T05:18:09.110Z,971.46
2022-11-10T05:19:09.129Z,971.46
2022-11-10T05:20:09.115Z,971.47
2022-11-10T05:21:09.087Z,971.46
2022-11-10T05:22:09.060Z,971.45
2022-11-10T05:23:09.050Z,971.46
2022-11-10T05:24:09.040Z,971.50
2022-11-10T05:25:09.056Z,971.46
2022-11-10T05:26:09.057Z,971.47
2022-11-10T05:27:09.003Z,971.55
2022-11-10T05:28:08.992Z,971.53
2022-11-10T05:29:08.988Z,971.57
2022-11-10T05:30:08.981Z,971.59
2022-11-10T05:31:09.003Z,971.58
2022-11-10T05:32:08.982Z,971.59
2022-11-10T05:33:09.533Z,971.58
2022-11-10T05:34:08.935Z,971.60
2022-11-10T05:35:08.943Z,971.61
2022-11-10T05:36:08.918Z,971.65
2022-11-10T05:37:08.915Z,971.63
2022-11-10T05:38:08.915Z,971.66
2022-11-10T05:39:08.867Z,971.72
2022-11-10T05:40:08.880Z,971.77
2022-11-10T05:41:08.850Z,971.70
2022-11-10T05:42:08.862Z,971.69
2022-11-10T05:43:08.872Z,971.70
2022-11-10T05:44:08.818Z,971.71
2022-11-10T05:45:08.805Z,971.69
2022-11-10T05:46:08.795Z,971.69
2022-11-10T05:47:08.789Z,971.75
2022-11-10T05:48:08.805Z,971.74
2022-11-10T05:49:08.803Z,971.79
2022-11-10T05:50:08.755Z,971.82
2022-11-10T05:51:08.738Z,971.77
2022-11-10T05:52:08.765Z,971.77
2022-11-10T05:53:08.779Z,971.80
2022-11-10T05:54:08.751Z,971.82
2022-11-10T05:55:08.688Z,971.85
2022-11-10T05:56:08.687Z,971.90
2022-11-10T05:57:08.666Z,971.92
2022-11-10T05:58:08.697Z,972.03
2022-11-10T05:59:08.668Z,972.00
2022-11-10T06:00:08.674Z,971.96
2022-11-10T06:01:08.621Z,971.98
2022-11-10T06:02:08.617Z,972.03
2022-11-10T06:03:08.734Z,972.10
2022-11-10T06:04:08.603Z,972.11
2022-11-10T06:05:08.606Z,972.11
2022-11-10T06:06:08.579Z,972.16
2022-11-10T06:07:08.655Z,972.20
2022-11-10T06:08:08.574Z,972.25
2022-11-10T06:09:08.590Z,972.27
2022-11-10T06:10:08.540Z,972.27
2022-11-10T06:11:08.549Z,972.32
2022-11-10T06:12:08.519Z,972.28
2022-11-10T06:13:08.503Z,972.31
2022-11-10T06:14:08.517Z,972.34
2022-11-10T06:15:08.484Z,972.39
2022-11-10T06:16:08.490Z,972.40
2022-11-10T06:17:08.491Z,972.42
2022-11-10T06:18:08.433Z,972.45
2022-11-10T06:19:08.422Z,972.46
2022-11-10T06:20:08.573Z,972.54
2022-11-10T06:21:08.420Z,972.48
2022-11-10T06:22:08.423Z,972.53
2022-11-10T06:23:08.378Z,972.61
2022-11-10T06:24:08.380Z,972.60
2022-11-10T06:25:08.371Z,972.65
2022-11-10T06:26:08.384Z,972.70
2022-11-10T06:27:08.352Z,972.73
2022-11-10T06:28:08.348Z,972.72
2022-11-10T06:29:08.367Z,972.71
2022-11-10T06:30:08.299Z,972.77
2022-11-10T06:31:08.288Z,972.75
2022-11-10T06:32:08.280Z,972.80
2022-11-10T06:33:08.292Z,972.75
2022-11-10T06:34:08.297Z,972.84
2022-11-10T06:35:08.241Z,972.81
2022-11-10T06:36:08.233Z,972.84
2022-11-10T06:37:08.248Z,972.82
2022-11-10T06:38:08.225Z,972.90
2022-11-10T06:39:08.219Z,972.87
2022-11-10T06:40:08.190Z,972.87
2022-11-10T06:41:08.212Z,972.86
2022-11-10T06:42:08.176Z,972.89
2022-11-10T06:43:08.185Z,972.92
2022-11-10T06:44:08.179Z,973.01
2022-11-10T06:45:08.136Z,973.06
2022-11-10T06:46:08.121Z,973.09
2022-11-10T06:47:08.106Z,973.16
2022-11-10T06:48:08.124Z,973.14
2022-11-10T06:49:08.096Z,973.21
2022-11-10T06:50:08.106Z,973.22
2022-11-10T06:51:08.061Z,973.25
2022-11-10T06:52:08.054Z,973.24
2022-11-10T06:53:08.058Z,973.26
2022-11-10T06:54:08.045Z,973.28
2022-11-10T06:55:08.033Z,973.28
2022-11-10T06:56:08.022Z,973.33
2022-11-10T06:57:08.013Z,973.30
2022-11-10T06:58:08.003Z,973.33
2022-11-10T06:59:07.974Z,973.41
2022-11-10T07:00:08.031Z,973.40
2022-11-10T07:01:08.090Z,973.37
2022-11-10T07:02:07.966Z,973.43
2022-11-10T07:03:07.962Z,973.45
2022-11-10T07:04:19.544Z,973.44
2022-11-10T07:05:08.924Z,973.52
2022-11-10T07:06:07.918Z,973.53
2022-11-10T07:07:07.977Z,973.53
2022-11-10T07:08:07.922Z,973.61
2022-11-10T07:09:07.861Z,973.61
2022-11-10T07:10:07.920Z,973.61
2022-11-10T07:11:07.858Z,973.66
2022-11-10T07:12:07.881Z,973.71
2022-11-10T07:13:07.858Z,973.65
2022-11-10T07:14:07.805Z,973.71
2022-11-10T07:15:07.837Z,973.76
2022-11-10T07:16:07.788Z,973.72
2022-11-10T07:17:07.804Z,973.75
2022-11-10T07:18:07.782Z,973.80
2022-11-10T07:19:07.786Z,973.86
2022-11-10T07:20:07.737Z,973.85
2022-11-10T07:21:07.766Z,973.87
2022-11-10T07:22:11.074Z,973.85
2022-11-10T07:23:07.714Z,973.85
2022-11-10T07:24:07.724Z,973.86
2022-11-10T07:25:07.840Z,973.93
2022-11-10T07:26:07.677Z,973.88
2022-11-10T07:27:07.685Z,973.90
2022-11-10T07:28:07.671Z,973.89
2022-11-10T07:29:07.667Z,973.90
2022-11-10T07:30:07.653Z,973.91
2022-11-10T07:31:07.617Z,973.94
2022-11-10T07:32:07.605Z,973.91
2022-11-10T07:33:08.095Z,973.92
2022-11-10T07:34:07.604Z,973.94
2022-11-10T07:35:07.597Z,973.94
2022-11-10T07:36:07.602Z,973.96
2022-11-10T07:37:07.601Z,973.96
2022-11-10T07:38:07.540Z,974.00
2022-11-10T07:39:07.536Z,973.98
2022-11-10T07:40:07.537Z,974.03
2022-11-10T07:41:07.531Z,974.02
2022-11-10T07:42:07.542Z,973.99
2022-11-10T07:43:07.491Z,974.00
2022-11-10T07:44:07.471Z,973.97
2022-11-10T07:45:07.552Z,973.94
2022-11-10T07:46:07.501Z,974.02
2022-11-10T07:47:07.476Z,973.91
2022-11-10T07:48:07.593Z,973.98
2022-11-10T07:49:07.416Z,973.94
2022-11-10T07:50:07.408Z,973.98
2022-11-10T07:51:07.429Z,973.99
2022-11-10T07:52:07.408Z,974.00
2022-11-10T07:53:07.410Z,974.00
2022-11-10T07:54:07.364Z,974.09
2022-11-10T07:55:07.348Z,974.05
2022-11-10T07:56:07.373Z,974.11
2022-11-10T07:57:07.331Z,974.13
2022-11-10T07:58:07.349Z,974.21
2022-11-10T07:59:07.307Z,974.22
2022-11-10T08:00:07.296Z,974.21
2022-11-10T08:01:07.331Z,974.20
2022-11-10T08:02:07.335Z,974.18
2022-11-10T08:03:07.272Z,974.25
2022-11-10T08:04:07.287Z,974.19
2022-11-10T08:05:07.234Z,974.23
2022-11-10T08:06:07.243Z,974.24
2022-11-10T08:07:07.425Z,974.26
2022-11-10T08:08:07.205Z,974.28
2022-11-10T08:09:07.215Z,974.22
2022-11-10T08:10:07.207Z,974.29
2022-11-10T08:11:07.219Z,974.28
2022-11-10T08:12:07.170Z,974.34
2022-11-10T08:13:07.219Z,974.32
2022-11-10T08:14:07.147Z,974.35
2022-11-10T08:15:07.160Z,974.42
2022-11-10T08:16:07.154Z,974.40
2022-11-10T08:17:07.135Z,974.39
2022-11-10T08:18:07.091Z,974.46
2022-11-10T08:19:07.112Z,974.45
2022-11-10T08:20:07.087Z,974.43
2022-11-10T08:21:07.087Z,974.46
2022-11-10T08:22:07.043Z,974.47
2022-11-10T08:23:07.055Z,974.45
2022-11-10T08:24:08.480Z,974.40
2022-11-10T08:25:07.014Z,974.43
2022-11-10T08:26:07.037Z,974.44
2022-11-10T08:27:07.033Z,974.47
2022-11-10T08:28:06.976Z,974.48
2022-11-10T08:29:06.967Z,974.54
2022-11-10T08:30:06.956Z,974.51
2022-11-10T08:31:06.956Z,974.54
2022-11-10T08:32:06.983Z,974.57
2022-11-10T08:33:06.991Z,974.53
2022-11-10T08:34:06.910Z,974.50
2022-11-10T08:35:06.900Z,974.52
2022-11-10T08:36:06.887Z,974.53
2022-11-10T08:37:06.905Z,974.59
2022-11-10T08:38:09.466Z,974.56
2022-11-10T08:39:06.870Z,974.62
2022-11-10T08:40:06.843Z,974.65
2022-11-10T08:41:06.847Z,974.67
2022-11-10T08:42:06.830Z,974.69
2022-11-10T08:43:06.830Z,974.70
2022-11-10T08:44:10.677Z,974.70
2022-11-10T08:45:06.788Z,974.73
2022-11-10T08:46:06.822Z,974.72
2022-11-10T08:47:06.769Z,974.73
2022-11-10T08:48:06.771Z,974.77
2022-11-10T08:49:06.799Z,974.77
2022-11-10T08:50:06.731Z,974.77
2022-11-10T08:51:06.730Z,974.83
2022-11-10T08:52:07.104Z,974.87
2022-11-10T08:53:06.701Z,974.79
2022-11-10T08:54:06.716Z,974.84
2022-11-10T08:55:06.675Z,974.85
2022-11-10T08:56:06.663Z,974.88
2022-11-10T08:57:06.670Z,974.89
2022-11-10T08:58:06.659Z,974.96
2022-11-10T08:59:06.652Z,974.94
2022-11-10T09:00:06.664Z,974.97
2022-11-10T09:01:06.608Z,974.96
2022-11-10T09:02:06.608Z,974.98
2022-11-10T09:03:06.586Z,975.03
2022-11-10T09:04:06.620Z,974.99
2022-11-10T09:05:06.630Z,975.08
2022-11-10T09:06:06.600Z,975.05
2022-11-10T09:07:06.617Z,975.07
2022-11-10T09:08:06.530Z,975.11
2022-11-10T09:09:06.529Z,975.14
2022-11-10T09:10:07.914Z,975.15
2022-11-10T09:11:06.517Z,975.11
2022-11-10T09:12:06.535Z,975.15
2022-11-10T09:13:06.489Z,975.15
2022-11-10T09:14:06.478Z,975.19
2022-11-10T09:15:06.462Z,975.16
2022-11-10T09:16:06.452Z,975.20
2022-11-10T09:17:06.455Z,975.29
2022-11-10T09:18:06.473Z,975.30
2022-11-10T09:19:06.409Z,975.30
2022-11-10T09:20:06.463Z,975.34
2022-11-10T09:21:06.460Z,975.33
2022-11-10T09:22:06.418Z,975.31
2022-11-10T09:23:06.388Z,975.29
2022-11-10T09:24:06.388Z,975.30
2022-11-10T09:25:06.342Z,975.28
2022-11-10T09:26:06.337Z,975.29
2022-11-10T09:27:06.329Z,975.28
2022-11-10T09:28:06.324Z,975.33
2022-11-10T09:29:06.348Z,975.41
2022-11-10T09:30:06.287Z,975.37
2022-11-10T09:31:06.275Z,975.44
2022-11-10T09:32:06.269Z,975.49
2022-11-10T09:33:06.259Z,975.50
2022-11-10T09:34:06.311Z,975.46
2022-11-10T09:35:06.232Z,975.43
2022-11-10T09:36:06.219Z,975.44
2022-11-10T09:37:06.227Z,975.44
2022-11-10T09:38:06.217Z,975.45
2022-11-10T09:39:06.207Z,975.46
2022-11-10T09:40:10.421Z,975.45
2022-11-10T09:41:07.171Z,975.43
2022-11-10T09:42:06.152Z,975.46
2022-11-10T09:43:06.144Z,975.45
2022-11-10T09:44:06.162Z,975.55
2022-11-10T09:45:06.147Z,975.48
2022-11-10T09:46:06.133Z,975.55
2022-11-10T09:47:06.138Z,975.52
2022-11-10T09:48:06.085Z,975.53
2022-11-10T09:49:06.079Z,975.60
2022-11-10T09:50:06.091Z,975.54
2022-11-10T09:51:06.064Z,975.50
2022-11-10T09:52:06.066Z,975.52
2022-11-10T09:53:06.047Z,975.60
2022-11-10T09:54:06.018Z,975.60
2022-11-10T09:55:06.037Z,975.64
2022-11-10T09:56:06.008Z,975.65
2022-11-10T09:57:06.016Z,975.67
2022-11-10T09:58:05.973Z,975.66
2022-11-10T09:59:05.963Z,975.64
2022-11-10T10:00:05.964Z,975.72
2022-11-10T10:01:06.017Z,975.71
2022-11-10T10:02:05.978Z,975.75
2022-11-10T10:03:06.017Z,975.78
2022-11-10T10:04:05.908Z,975.80
2022-11-10T10:05:05.913Z,975.80
2022-11-10T10:06:05.897Z,975.78
2022-11-10T10:07:11.208Z,975.80
2022-11-10T10:08:06.862Z,975.80
2022-11-10T10:09:05.869Z,975.87
2022-11-10T10:10:05.843Z,975.93
2022-11-10T10:11:05.852Z,975.87
2022-11-10T10:12:05.819Z,975.91
2022-11-10T10:13:05.851Z,975.89
2022-11-10T10:14:05.829Z,975.90
2022-11-10T10:15:05.824Z,975.86
2022-11-10T10:16:05.772Z,975.89
2022-11-10T10:17:05.765Z,975.89
2022-11-10T10:18:05.789Z,975.86
2022-11-10T10:19:05.764Z,975.84
2022-11-10T10:20:05.726Z,975.78
2022-11-10T10:21:05.717Z,975.82
2022-11-10T10:22:05.706Z,975.83
2022-11-10T10:23:05.720Z,975.87
2022-11-10T10:24:18.284Z,975.86
2022-11-10T10:25:06.710Z,975.83
2022-11-10T10:26:05.745Z,975.84
2022-11-10T10:27:05.651Z,975.86
2022-11-10T10:28:05.639Z,975.84
2022-11-10T10:29:05.645Z,975.81
2022-11-10T10:30:05.649Z,975.86
2022-11-10T10:31:05.638Z,975.88
2022-11-10T10:32:05.626Z,975.92
2022-11-10T10:33:05.588Z,975.82
2022-11-10T10:34:05.583Z,975.89
2022-11-10T10:35:05.606Z,975.89
2022-11-10T10:36:05.568Z,975.91
2022-11-10T10:37:05.581Z,975.95
2022-11-10T10:38:05.531Z,975.97
2022-11-10T10:39:05.520Z,975.88
2022-11-10T10:40:05.552Z,975.91
2022-11-10T10:41:05.500Z,975.88
2022-11-10T10:42:05.513Z,975.87
2022-11-10T10:43:05.473Z,975.86
2022-11-10T10:44:05.461Z,975.87
2022-11-10T10:45:05.566Z,975.92
2022-11-10T10:46:05.469Z,975.91
2022-11-10T10:47:05.475Z,975.94
2022-11-10T10:48:05.454Z,975.97
2022-11-10T10:49:27.466Z,976.00
2022-11-10T10:50:06.406Z,976.03
2022-11-10T10:51:05.417Z,976.06
2022-11-10T10:52:05.412Z,976.03
2022-11-10T10:53:05.383Z,976.08
2022-11-10T10:54:05.388Z,976.12
2022-11-10T10:55:05.341Z,976.15
2022-11-10T10:56:05.350Z,976.16
2022-11-10T10:57:05.328Z,976.15
2022-11-10T10:58:05.312Z,976.14
2022-11-10T10:59:05.320Z,976.17
2022-11-10T11:00:05.316Z,976.20
2022-11-10T11:01:05.331Z,976.17
2022-11-10T11:02:05.260Z,976.15
2022-11-10T11:03:05.257Z,976.18
2022-11-10T11:04:05.284Z,976.13
2022-11-10T11:05:05.259Z,976.20
2022-11-10T11:06:05.264Z,976.17
2022-11-10T11:07:05.292Z,976.20
2022-11-10T11:08:05.203Z,976.29
2022-11-10T11:09:05.183Z,976.32
2022-11-10T11:10:05.181Z,976.30
2022-11-10T11:11:05.203Z,976.31
2022-11-10T11:12:05.166Z,976.30
2022-11-10T11:13:05.174Z,976.32
2022-11-10T11:14:05.141Z,976.28
2022-11-10T11:15:05.128Z,976.28
2022-11-10T11:16:05.142Z,976.25
2022-11-10T11:17:05.187Z,976.29
2022-11-10T11:18:05.098Z,976.30
2022-11-10T11:19:05.077Z,976.30
2022-11-10T11:20:05.060Z,976.27
2022-11-10T11:21:05.070Z,976.26
2022-11-10T11:22:05.071Z,976.26
2022-11-10T11:23:05.033Z,976.25
2022-11-10T11:24:05.019Z,976.20
2022-11-10T11:25:05.015Z,976.21
2022-11-10T11:26:05.003Z,976.23
2022-11-10T11:27:05.004Z,976.26
2022-11-10T11:28:05.020Z,976.22
2022-11-10T11:29:04.973Z,976.21
2022-11-10T11:30:04.951Z,976.19
2022-11-10T11:31:04.952Z,976.19
2022-11-10T11:32:04.945Z,976.21
2022-11-10T11:33:04.955Z,976.18
2022-11-10T11:34:04.939Z,976.19
2022-11-10T11:35:04.893Z,976.26
2022-11-10T11:36:04.891Z,976.22
2022-11-10T11:37:09.841Z,976.23
2022-11-10T11:38:05.866Z,976.29
2022-11-10T11:39:04.887Z,976.31
2022-11-10T11:40:04.886Z,976.28
2022-11-10T11:41:04.825Z,976.24
2022-11-10T11:42:04.827Z,976.20
2022-11-10T11:43:04.819Z,976.22
2022-11-10T11:44:04.831Z,976.21
2022-11-10T11:45:04.782Z,976.19
2022-11-10T11:46:04.773Z,976.18
2022-11-10T11:47:04.778Z,976.15
2022-11-10T11:48:04.774Z,976.02
2022-11-10T11:49:04.747Z,976.03
2022-11-10T11:50:04.753Z,976.08
2022-11-10T11:51:04.718Z,976.09
2022-11-10T11:52:04.724Z,976.09
2022-11-10T11:53:04.696Z,976.03
2022-11-10T11:54:04.721Z,976.00
2022-11-10T11:55:04.846Z,976.00
2022-11-10T11:56:04.694Z,976.00
2022-11-10T11:57:04.692Z,976.04
2022-11-10T11:58:04.640Z,975.99
2022-11-10T11:59:04.660Z,976.01
2022-11-10T12:00:04.635Z,976.05
2022-11-10T12:01:04.627Z,976.04
2022-11-10T12:02:04.665Z,976.11
2022-11-10T12:03:04.674Z,976.05
2022-11-10T12:04:04.573Z,976.06
2022-11-10T12:05:04.562Z,976.08
2022-11-10T12:06:04.592Z,976.07
2022-11-10T12:07:04.566Z,976.06
2022-11-10T12:08:04.529Z,976.10
2022-11-10T12:09:04.533Z,976.07
2022-11-10T12:10:04.512Z,976.08
2022-11-10T12:11:04.494Z,976.11
2022-11-10T12:12:04.541Z,976.10
2022-11-10T12:13:04.504Z,976.07
2022-11-10T12:14:04.461Z,976.10
2022-11-10T12:15:04.451Z,976.10
2022-11-10T12:16:04.463Z,976.13
2022-11-10T12:17:04.439Z,976.16
2022-11-10T12:18:04.504Z,976.15
2022-11-10T12:19:04.450Z,976.15
2022-11-10T12:20:04.395Z,976.14
2022-11-10T12:21:04.384Z,976.12
2022-11-10T12:22:04.396Z,976.08
2022-11-10T12:23:04.377Z,976.12
2022-11-10T12:24:09.785Z,976.11
2022-11-10T12:25:05.366Z,976.13
2022-11-10T12:26:04.330Z,976.09
2022-11-10T12:27:04.320Z,976.13
2022-11-10T12:28:04.339Z,976.09